Time;durP1;ratioP1;P1;durP2;ratioP2;P2;SDS_P1;SDS_P2;PMS_P1;PMS_P2;Temp;Humidity;BMP_temperature;BMP_pressure;BME280_temperature;BME280_humidity;BME280_pressure;Samples;Min_cycle;Max_cycle;Signal;HPM_P1;HPM_P2
2023/08/21 00:01:45;;;;;;;15.02;10.73;;;21.40;76.80;;;;;;4879335;29;20045;-89
2023/08/21 00:04:12;;;;;;;16.43;9.90;;;21.50;76.80;;;;;;4879013;29;20056;-88
2023/08/21 00:06:39;;;;;;;15.25;10.63;;;21.50;76.80;;;;;;4879025;29;20045;-89
2023/08/21 00:09:06;;;;;;;17.17;9.88;;;21.40;76.80;;;;;;4878804;29;20053;-87
2023/08/21 00:11:33;;;;;;;15.45;9.48;;;21.40;76.80;;;;;;4884692;29;20067;-89
2023/08/21 00:14:00;;;;;;;15.95;10.25;;;21.40;76.90;;;;;;4878543;29;20045;-88
2023/08/21 00:16:28;;;;;;;14.93;10.07;;;21.40;76.60;;;;;;4874811;29;20069;-87
2023/08/21 00:18:56;;;;;;;15.73;9.55;;;21.40;76.60;;;;;;4878758;29;20182;-88
2023/08/21 00:21:22;;;;;;;13.50;9.77;;;21.30;76.40;;;;;;4878303;29;20510;-88
2023/08/21 00:23:50;;;;;;;14.75;10.23;;;21.50;76.20;;;;;;4878485;29;20534;-88
2023/08/21 00:26:17;;;;;;;13.38;9.93;;;21.40;76.10;;;;;;4868167;29;20539;-88
2023/08/21 00:28:44;;;;;;;17.17;9.97;;;21.50;76.00;;;;;;4861877;29;20435;-88
2023/08/21 00:31:12;;;;;;;14.10;10.48;;;21.50;76.20;;;;;;4878673;29;20041;-88
2023/08/21 00:33:39;;;;;;;15.73;9.90;;;21.40;76.20;;;;;;4874562;29;20527;-88
2023/08/21 00:36:06;;;;;;;14.68;10.32;;;21.40;76.10;;;;;;4870276;29;20041;-88
2023/08/21 00:38:34;;;;;;;16.50;10.32;;;21.40;76.20;;;;;;4874644;29;20553;-88
2023/08/21 00:41:01;;;;;;;15.17;9.80;;;21.40;76.30;;;;;;4874618;29;20052;-88
2023/08/21 00:43:28;;;;;;;14.55;9.63;;;21.30;76.20;;;;;;4877520;29;20056;-88
2023/08/21 00:45:55;;;;;;;15.65;10.07;;;21.30;76.10;;;;;;4876087;29;20575;-88
2023/08/21 00:48:22;;;;;;;14.30;9.82;;;21.40;76.00;;;;;;4877151;29;20044;-88
2023/08/21 00:50:50;;;;;;;13.43;9.57;;;21.30;76.00;;;;;;4872981;29;20061;-88
2023/08/21 00:53:17;;;;;;;13.93;10.07;;;21.40;76.00;;;;;;4878384;29;20478;-88
2023/08/21 00:55:45;;;;;;;15.13;9.90;;;21.40;75.90;;;;;;4877383;29;20053;-88
2023/08/21 00:58:12;;;;;;;15.23;10.63;;;21.50;75.80;;;;;;4871841;29;20049;-88
2023/08/21 01:00:45;;;;;;;16.80;9.55;;;21.40;75.70;;;;;;4861245;29;20072;-88
2023/08/21 01:03:13;;;;;;;15.32;9.75;;;21.50;75.70;;;;;;4877636;29;20127;-88
2023/08/21 01:05:41;;;;;;;15.47;10.67;;;21.40;75.70;;;;;;4874283;29;20044;-88
2023/08/21 01:08:40;;;;;;;16.58;10.43;;;21.40;75.90;;;;;;4878384;29;20068;-88
2023/08/21 01:11:16;;;;;;;15.13;9.95;;;21.40;75.90;;;;;;4874729;29;20108;-88
2023/08/21 01:14:06;;;;;;;14.65;10.30;;;21.30;76.00;;;;;;4861568;29;20073;-88
2023/08/21 01:16:33;;;;;;;14.55;10.02;;;21.30;76.00;;;;;;4861598;29;20133;-88
2023/08/21 01:19:03;;;;;;;13.57;9.70;;;21.30;76.00;;;;;;4871309;29;20045;-88
2023/08/21 01:21:30;;;;;;;21.15;11.05;;;21.40;76.00;;;;;;4862243;29;20057;-87
2023/08/21 01:23:57;;;;;;;16.20;10.60;;;21.30;76.00;;;;;;4877087;29;20043;-88
2023/08/21 01:26:24;;;;;;;13.82;9.82;;;21.30;76.30;;;;;;4878263;29;20079;-88
2023/08/21 01:28:52;;;;;;;15.52;9.95;;;21.30;76.10;;;;;;4863032;29;20057;-88
2023/08/21 01:31:33;;;;;;;14.17;10.37;;;21.40;76.00;;;;;;4878147;29;20045;-87
2023/08/21 01:34:05;;;;;;;16.55;10.40;;;21.40;75.80;;;;;;4876689;29;20045;-88
2023/08/21 01:36:33;;;;;;;13.50;9.95;;;21.40;75.70;;;;;;4872920;29;20058;-88
2023/08/21 01:39:00;;;;;;;15.30;10.88;;;21.40;75.80;;;;;;4878064;29;20045;-88
2023/08/21 01:41:27;;;;;;;16.10;10.65;;;21.40;75.70;;;;;;4871704;29;20049;-88
2023/08/21 01:43:54;;;;;;;15.23;10.63;;;21.40;75.80;;;;;;4881982;29;20049;-88
2023/08/21 01:46:22;;;;;;;15.73;9.60;;;21.40;75.80;;;;;;4881651;29;20582;-88
2023/08/21 01:48:49;;;;;;;14.60;10.23;;;21.40;75.60;;;;;;4865902;29;20444;-88
2023/08/21 01:51:16;;;;;;;15.30;9.80;;;21.40;75.70;;;;;;4877652;29;20053;-88
2023/08/21 01:53:43;;;;;;;14.77;11.35;;;21.40;75.60;;;;;;4880832;29;20053;-88
2023/08/21 01:56:11;;;;;;;16.47;10.93;;;21.30;75.70;;;;;;4881636;29;20072;-88
2023/08/21 01:58:38;;;;;;;15.88;10.55;;;21.20;75.90;;;;;;4865933;29;20088;-88
2023/08/21 02:07:09;;;;;;;16.30;10.13;;;21.10;76.40;;;;;;4900651;29;20044;-92
2023/08/21 02:09:36;;;;;;;17.70;11.17;;;21.10;76.60;;;;;;4885343;29;20045;-92
2023/08/21 02:12:03;;;;;;;15.65;10.80;;;21.10;76.60;;;;;;4885199;29;20410;-92
2023/08/21 02:14:30;;;;;;;16.60;10.93;;;21.10;76.60;;;;;;4885083;29;20052;-92
2023/08/21 02:16:57;;;;;;;18.42;11.48;;;21.00;76.70;;;;;;4870048;29;20493;-92
2023/08/21 02:19:24;;;;;;;17.85;11.00;;;21.00;77.00;;;;;;4870111;29;20049;-91
2023/08/21 02:21:51;;;;;;;16.47;10.97;;;21.00;77.10;;;;;;4869674;29;20072;-91
2023/08/21 02:24:18;;;;;;;16.02;10.80;;;21.00;77.00;;;;;;4884794;29;20056;-92
2023/08/21 02:26:45;;;;;;;15.85;11.15;;;21.00;76.90;;;;;;4885290;29;20062;-92
2023/08/21 02:29:12;;;;;;;14.57;10.90;;;21.00;76.90;;;;;;4884824;29;20528;-92
2023/08/21 02:31:39;;;;;;;18.05;10.90;;;20.90;77.10;;;;;;4869490;29;20056;-92
2023/08/21 02:34:07;;;;;;;15.60;11.60;;;20.90;77.20;;;;;;4884725;29;20049;-92
2023/08/21 02:36:34;;;;;;;14.95;10.40;;;20.80;77.30;;;;;;4884772;29;20051;-92
2023/08/21 02:39:01;;;;;;;18.25;11.60;;;20.70;77.60;;;;;;4884855;29;20087;-92
2023/08/21 02:41:28;;;;;;;15.35;11.02;;;20.70;77.70;;;;;;4884912;29;20056;-92
2023/08/21 02:43:55;;;;;;;15.52;10.60;;;20.70;77.70;;;;;;4884745;29;20058;-92
2023/08/21 02:46:22;;;;;;;15.17;10.80;;;20.70;77.70;;;;;;4869312;29;20052;-92
2023/08/21 02:48:49;;;;;;;15.05;11.50;;;20.60;77.80;;;;;;4884380;29;20060;-91
2023/08/21 02:51:16;;;;;;;16.85;10.88;;;20.60;77.80;;;;;;4869325;29;20075;-91
2023/08/21 02:53:44;;;;;;;15.95;11.50;;;20.60;77.80;;;;;;4884227;29;20096;-92
2023/08/21 02:56:11;;;;;;;14.90;10.77;;;20.60;77.80;;;;;;4884643;29;20044;-92
2023/08/21 02:58:38;;;;;;;17.17;10.90;;;20.60;77.90;;;;;;4884232;29;20088;-92
2023/08/21 03:01:05;;;;;;;19.23;11.25;;;20.60;78.00;;;;;;4884289;29;20044;-92
2023/08/21 03:03:33;;;;;;;16.02;11.70;;;20.70;77.80;;;;;;4884400;29;20390;-92
2023/08/21 03:06:00;;;;;;;17.83;11.18;;;20.60;77.80;;;;;;4869179;29;20057;-92
2023/08/21 03:08:28;;;;;;;16.50;11.07;;;20.60;77.60;;;;;;4884493;29;20044;-91
2023/08/21 03:10:55;;;;;;;16.37;10.73;;;20.70;77.60;;;;;;4884461;29;20056;-92
2023/08/21 03:13:22;;;;;;;18.40;11.27;;;20.70;77.60;;;;;;4884086;29;20076;-92
2023/08/21 03:15:49;;;;;;;15.38;10.77;;;20.60;77.60;;;;;;4868749;29;20079;-92
2023/08/21 03:18:17;;;;;;;15.90;11.18;;;20.60;77.60;;;;;;4885094;29;20502;-92
2023/08/21 03:20:45;;;;;;;15.05;11.35;;;20.60;77.80;;;;;;4868508;29;20060;-92
2023/08/21 03:23:13;;;;;;;16.47;10.97;;;20.60;77.70;;;;;;4884483;29;20051;-92
2023/08/21 03:25:41;;;;;;;16.63;10.88;;;20.60;77.70;;;;;;4868619;29;20059;-92
2023/08/21 03:28:08;;;;;;;16.63;11.32;;;20.50;77.80;;;;;;4884309;29;20501;-92
2023/08/21 03:30:35;;;;;;;16.95;10.80;;;20.50;77.80;;;;;;4868425;29;20075;-92
2023/08/21 03:33:03;;;;;;;17.95;11.38;;;20.60;77.90;;;;;;4883850;29;20143;-92
2023/08/21 03:35:30;;;;;;;16.23;11.23;;;20.60;77.80;;;;;;4868854;29;20056;-92
2023/08/21 03:37:57;;;;;;;16.65;11.32;;;20.60;77.70;;;;;;4876246;29;20048;-92
2023/08/21 03:40:27;;;;;;;17.00;11.88;;;20.60;77.70;;;;;;4881157;29;20049;-92
2023/08/21 03:42:55;;;;;;;18.00;11.57;;;20.60;77.80;;;;;;4880735;29;20082;-92
2023/08/21 03:45:22;;;;;;;16.00;11.63;;;20.60;77.70;;;;;;4865344;29;20526;-92
2023/08/21 03:47:49;;;;;;;15.93;11.03;;;20.60;77.70;;;;;;4850056;29;20494;-93
2023/08/21 03:50:19;;;;;;;15.95;10.85;;;20.60;77.70;;;;;;4864797;29;20076;-92
2023/08/21 03:52:46;;;;;;;17.48;11.70;;;20.60;77.60;;;;;;4849604;29;20053;-92
2023/08/21 03:55:13;;;;;;;17.70;11.63;;;20.60;77.60;;;;;;4864419;29;20400;-92
2023/08/21 03:57:42;;;;;;;15.98;11.27;;;20.60;77.60;;;;;;4880678;29;20041;-92
2023/08/21 04:00:10;;;;;;;15.33;10.77;;;20.50;77.80;;;;;;4864667;29;20056;-92
2023/08/21 04:02:45;;;;;;;17.95;11.85;;;20.50;77.80;;;;;;4850643;29;20045;-92
2023/08/21 04:05:12;;;;;;;16.95;11.60;;;20.50;77.90;;;;;;4880524;29;20071;-92
2023/08/21 04:07:40;;;;;;;16.58;11.15;;;20.50;78.00;;;;;;4864627;29;20057;-92
2023/08/21 04:10:07;;;;;;;15.20;11.50;;;20.50;78.00;;;;;;4864734;29;20059;-91
2023/08/21 04:12:34;;;;;;;17.90;11.17;;;20.40;78.10;;;;;;4880434;29;20510;-91
2023/08/21 04:15:02;;;;;;;18.05;11.65;;;20.50;78.40;;;;;;4849246;29;20045;-92
2023/08/21 04:17:29;;;;;;;15.48;10.80;;;20.50;78.20;;;;;;4864680;29;20045;-92
2023/08/21 04:19:57;;;;;;;17.75;11.55;;;20.50;78.20;;;;;;4864474;29;20052;-92
2023/08/21 04:22:24;;;;;;;15.85;11.40;;;20.50;78.10;;;;;;4880238;29;20402;-93
2023/08/21 04:24:51;;;;;;;18.87;12.17;;;20.50;78.20;;;;;;4864596;29;20053;-91
2023/08/21 04:27:18;;;;;;;19.38;11.80;;;20.50;78.40;;;;;;4864199;29;20049;-91
2023/08/21 04:29:45;;;;;;;16.63;11.05;;;20.50;78.30;;;;;;4864760;29;20060;-92
2023/08/21 04:32:12;;;;;;;16.27;10.57;;;20.50;78.50;;;;;;4864412;29;20048;-92
2023/08/21 04:34:40;;;;;;;17.27;11.52;;;20.50;78.30;;;;;;4880148;29;20045;-91
2023/08/21 04:37:07;;;;;;;16.50;10.67;;;20.60;78.30;;;;;;4880165;29;20049;-92
2023/08/21 04:39:36;;;;;;;18.60;11.77;;;20.60;78.10;;;;;;4864239;29;20071;-91
2023/08/21 04:42:03;;;;;;;18.33;12.13;;;20.60;78.00;;;;;;4879668;29;20045;-91
2023/08/21 04:44:30;;;;;;;16.08;11.35;;;20.60;78.10;;;;;;4864748;29;20064;-91
2023/08/21 04:47:17;;;;;;;17.58;10.90;;;20.60;78.00;;;;;;4864797;29;20522;-91
2023/08/21 04:49:47;;;;;;;16.60;11.23;;;20.70;78.00;;;;;;4864113;29;20109;-92
2023/08/21 04:52:14;;;;;;;16.35;11.65;;;20.60;78.20;;;;;;4879611;29;20049;-91
2023/08/21 04:54:41;;;;;;;16.17;10.52;;;20.60;78.00;;;;;;4848568;29;20156;-91
2023/08/21 04:57:11;;;;;;;14.85;10.65;;;20.70;77.90;;;;;;4879333;29;20048;-91
2023/08/21 04:59:39;;;;;;;16.58;11.30;;;20.70;77.90;;;;;;4882826;29;20048;-92
2023/08/21 05:02:06;;;;;;;16.63;10.73;;;20.70;77.90;;;;;;4882676;29;20048;-91
2023/08/21 05:04:36;;;;;;;17.48;10.45;;;20.70;77.70;;;;;;4866109;29;20135;-91
2023/08/21 05:07:04;;;;;;;15.95;11.38;;;20.80;77.80;;;;;;4863212;29;20061;-91
2023/08/21 05:09:34;;;;;;;17.05;11.10;;;20.80;77.80;;;;;;4848045;29;20097;-91
2023/08/21 05:12:02;;;;;;;17.40;12.07;;;20.80;77.80;;;;;;4863266;29;20052;-90
2023/08/21 05:14:29;;;;;;;15.30;10.73;;;20.90;78.00;;;;;;4863581;29;20057;-91
2023/08/21 05:16:56;;;;;;;15.45;10.70;;;20.90;77.90;;;;;;4866663;29;20570;-91
2023/08/21 05:19:23;;;;;;;16.67;11.35;;;20.90;77.80;;;;;;4866637;29;20056;-90
2023/08/21 05:21:54;;;;;;;18.60;10.82;;;20.90;78.00;;;;;;4866851;29;20406;-92
2023/08/21 05:24:22;;;;;;;15.85;11.43;;;21.00;77.80;;;;;;4866335;29;20041;-91
2023/08/21 05:26:56;;;;;;;18.27;10.83;;;21.10;77.70;;;;;;4883277;29;20479;-91
2023/08/21 05:29:27;;;;;;;17.23;11.00;;;21.10;77.30;;;;;;4866583;29;20041;-92
2023/08/21 05:31:54;;;;;;;16.27;10.73;;;21.20;77.40;;;;;;4866510;29;20045;-91
2023/08/21 05:34:22;;;;;;;14.93;10.27;;;21.20;77.20;;;;;;4866514;29;20045;-91
2023/08/21 05:36:50;;;;;;;15.80;11.38;;;21.30;77.10;;;;;;4882201;29;20049;-91
2023/08/21 05:39:19;;;;;;;15.83;10.77;;;21.30;76.70;;;;;;4882032;29;20565;-91
2023/08/21 05:41:47;;;;;;;19.63;10.93;;;21.40;76.40;;;;;;4881859;29;20052;-92
2023/08/21 05:44:14;;;;;;;16.25;11.07;;;21.50;76.10;;;;;;4866542;29;20067;-91
2023/08/21 05:46:41;;;;;;;16.65;10.98;;;21.60;75.90;;;;;;4866731;29;20045;-91
2023/08/21 05:49:09;;;;;;;14.60;10.25;;;21.80;75.50;;;;;;4866343;29;20112;-92
2023/08/21 05:51:36;;;;;;;15.90;10.50;;;21.90;75.40;;;;;;4866599;29;20056;-92
2023/08/21 05:54:03;;;;;;;16.95;10.88;;;22.10;74.90;;;;;;4866135;29;20045;-92
2023/08/21 05:56:33;;;;;;;16.08;10.63;;;22.20;74.70;;;;;;4865917;29;20037;-92
2023/08/21 05:59:00;;;;;;;15.93;10.32;;;22.40;74.40;;;;;;4865908;29;20136;-92
2023/08/21 06:01:28;;;;;;;16.23;10.50;;;22.60;74.20;;;;;;4866315;29;20049;-92
2023/08/21 06:03:55;;;;;;;16.43;11.60;;;22.60;73.90;;;;;;4865952;29;20115;-92
2023/08/21 06:06:40;;;;;;;17.02;11.25;;;22.80;73.50;;;;;;4780267;29;2214755;-92
2023/08/21 06:09:09;;;;;;;17.20;10.35;;;22.90;73.40;;;;;;4882474;29;20077;-92
2023/08/21 06:11:38;;;;;;;16.30;10.82;;;23.10;72.90;;;;;;4866950;29;20077;-92
2023/08/21 06:14:06;;;;;;;16.70;10.47;;;23.30;72.50;;;;;;4882550;29;20053;-93
2023/08/21 06:16:34;;;;;;;12.80;10.02;;;23.40;72.10;;;;;;4866870;29;20055;-92
2023/08/21 06:19:01;;;;;;;16.27;10.45;;;23.50;72.00;;;;;;4851439;29;20577;-92
2023/08/21 06:21:28;;;;;;;14.93;10.73;;;23.50;72.10;;;;;;4867148;29;20495;-92
2023/08/21 06:23:55;;;;;;;14.75;10.15;;;23.50;71.90;;;;;;4866633;29;20045;-92
2023/08/21 06:26:22;;;;;;;13.50;9.87;;;23.50;72.20;;;;;;4866294;29;20053;-92
2023/08/21 06:28:51;;;;;;;15.00;10.45;;;23.60;72.20;;;;;;4882287;29;20053;-92
2023/08/21 06:31:18;;;;;;;16.00;10.48;;;23.60;72.20;;;;;;4866521;29;20414;-92
2023/08/21 06:33:45;;;;;;;18.65;10.77;;;23.80;72.40;;;;;;4866772;29;20044;-92
2023/08/21 06:36:12;;;;;;;14.40;10.30;;;23.90;72.20;;;;;;4866385;29;20106;-92
2023/08/21 06:38:41;;;;;;;15.63;9.60;;;24.10;71.20;;;;;;4852194;29;20436;-92
2023/08/21 06:41:09;;;;;;;16.67;9.73;;;24.20;71.00;;;;;;4881921;29;20139;-92
2023/08/21 06:43:39;;;;;;;15.50;10.10;;;24.40;71.40;;;;;;4882532;29;20546;-91
2023/08/21 06:46:12;;;;;;;14.20;9.77;;;24.60;70.40;;;;;;4869452;29;20051;-92
2023/08/21 06:48:41;;;;;;;13.32;9.73;;;24.60;70.30;;;;;;4901751;29;20048;-92
2023/08/21 06:51:08;;;;;;;15.83;10.47;;;24.70;70.70;;;;;;4900929;29;20061;-92
2023/08/21 06:53:35;;;;;;;15.40;9.88;;;24.90;69.80;;;;;;4869708;29;20048;-92
2023/08/21 06:56:02;;;;;;;14.00;9.65;;;24.90;69.60;;;;;;4890724;29;20144;-92
2023/08/21 06:58:30;;;;;;;15.55;9.38;;;25.00;69.70;;;;;;4850771;29;20414;-92
2023/08/21 07:00:57;;;;;;;17.25;10.27;;;25.10;69.10;;;;;;4866189;29;20459;-92
2023/08/21 07:03:24;;;;;;;14.03;9.70;;;25.20;68.80;;;;;;4865930;29;20041;-92
2023/08/21 07:05:58;;;;;;;14.10;10.27;;;25.50;68.80;;;;;;4881901;29;20089;-92
2023/08/21 07:08:26;;;;;;;14.70;10.07;;;25.60;69.30;;;;;;4866016;29;20120;-92
2023/08/21 07:10:53;;;;;;;16.63;9.57;;;25.70;68.00;;;;;;4897545;29;20514;-92
2023/08/21 07:13:21;;;;;;;14.80;10.00;;;25.90;67.40;;;;;;4850756;29;20052;-92
2023/08/21 07:15:54;;;;;;;16.77;10.27;;;26.00;67.60;;;;;;4865655;29;20049;-92
2023/08/21 07:18:22;;;;;;;19.30;10.48;;;26.10;67.50;;;;;;4896595;29;20101;-92
2023/08/21 07:20:53;;;;;;;18.77;10.90;;;26.20;66.70;;;;;;4850483;29;20096;-92
2023/08/21 07:23:20;;;;;;;18.35;11.10;;;26.30;67.40;;;;;;4850416;29;20100;-92
2023/08/21 07:25:47;;;;;;;20.27;11.52;;;26.50;66.70;;;;;;4865370;29;20109;-92
2023/08/21 07:28:14;;;;;;;25.03;13.40;;;26.60;66.10;;;;;;4865851;29;20053;-93
2023/08/21 07:30:41;;;;;;;25.98;13.23;;;26.60;65.20;;;;;;4865942;29;20044;-92
2023/08/21 07:33:09;;;;;;;25.45;12.88;;;26.70;65.10;;;;;;4865893;29;20112;-92
2023/08/21 07:35:36;;;;;;;29.67;14.15;;;26.80;65.10;;;;;;4865410;29;20498;-92
2023/08/21 07:38:03;;;;;;;23.05;13.27;;;26.90;65.40;;;;;;4864722;29;20049;-93
2023/08/21 07:40:30;;;;;;;22.27;10.83;;;27.10;66.50;;;;;;4850236;29;20068;-92
2023/08/21 07:42:57;;;;;;;14.85;9.23;;;27.20;64.70;;;;;;4896441;29;20064;-93
2023/08/21 07:45:25;;;;;;;16.48;10.18;;;27.30;62.70;;;;;;4865293;29;20140;-92
2023/08/21 07:47:52;;;;;;;12.85;9.88;;;27.20;62.30;;;;;;4864927;29;20049;-93
2023/08/21 07:50:35;;;;;;;12.60;9.60;;;27.20;63.50;;;;;;4864895;29;20092;-92
2023/08/21 07:53:02;;;;;;;13.00;8.83;;;27.20;63.30;;;;;;4849809;29;20048;-92
2023/08/21 07:55:29;;;;;;;14.05;9.63;;;27.30;64.30;;;;;;4864824;29;20045;-92
2023/08/21 07:57:57;;;;;;;13.38;9.32;;;27.50;63.20;;;;;;4849797;29;20052;-93
2023/08/21 08:00:24;;;;;;;14.15;9.85;;;27.50;63.60;;;;;;4895525;29;20056;-92
2023/08/21 08:02:51;;;;;;;15.30;9.57;;;27.50;63.40;;;;;;4864638;29;20049;-92
2023/08/21 08:05:20;;;;;;;16.70;9.97;;;27.60;63.70;;;;;;4864786;29;20148;-92
2023/08/21 08:07:47;;;;;;;14.73;9.68;;;27.60;64.30;;;;;;4895940;29;20528;-92
2023/08/21 08:10:14;;;;;;;14.63;10.27;;;27.70;63.80;;;;;;4864707;29;20053;-92
2023/08/21 08:12:43;;;;;;;14.00;10.55;;;27.80;63.90;;;;;;4864490;29;20052;-92
2023/08/21 08:15:11;;;;;;;18.38;10.00;;;27.90;64.00;;;;;;4864668;29;20414;-93
2023/08/21 08:17:38;;;;;;;16.53;10.27;;;28.10;64.30;;;;;;4865089;29;20410;-92
2023/08/21 08:20:06;;;;;;;13.98;9.48;;;28.10;63.80;;;;;;4864831;29;20045;-94
2023/08/21 08:22:33;;;;;;;14.60;10.25;;;28.20;63.30;;;;;;4864735;29;20057;-92
2023/08/21 08:25:00;;;;;;;13.48;10.50;;;28.20;62.40;;;;;;4870900;29;20045;-93
2023/08/21 08:27:27;;;;;;;14.48;10.57;;;28.30;62.80;;;;;;4882734;29;20079;-93
2023/08/21 08:29:55;;;;;;;14.53;10.33;;;28.40;63.10;;;;;;4882706;29;20056;-93
2023/08/21 08:32:22;;;;;;;15.65;10.13;;;28.40;62.20;;;;;;4882704;29;20497;-93
2023/08/21 08:34:49;;;;;;;14.98;10.38;;;28.40;62.20;;;;;;4883561;29;20049;-93
2023/08/21 08:37:16;;;;;;;14.48;10.38;;;28.60;62.30;;;;;;4882490;29;20044;-93
2023/08/21 08:39:45;;;;;;;13.88;10.05;;;28.50;61.50;;;;;;4867503;29;20147;-93
2023/08/21 08:42:13;;;;;;;14.23;9.93;;;28.60;61.40;;;;;;4851795;29;20415;-93
2023/08/21 08:44:42;;;;;;;16.45;10.50;;;28.60;62.50;;;;;;4879711;29;20049;-93
2023/08/21 08:47:11;;;;;;;14.65;10.45;;;28.60;61.80;;;;;;4864035;29;20072;-93
2023/08/21 08:49:38;;;;;;;14.48;9.93;;;28.60;60.40;;;;;;4864132;29;20057;-93
2023/08/21 08:52:06;;;;;;;14.88;10.43;;;28.60;61.10;;;;;;4848788;29;20045;-93
2023/08/21 08:54:35;;;;;;;14.87;9.83;;;28.60;60.70;;;;;;4863779;29;20053;-93
2023/08/21 08:57:05;;;;;;;15.65;10.27;;;28.70;60.90;;;;;;4879525;29;20052;-93
2023/08/21 08:59:35;;;;;;;13.32;9.82;;;28.70;59.40;;;;;;4863920;29;20147;-92
2023/08/21 09:02:03;;;;;;;14.90;10.20;;;28.80;58.70;;;;;;4864002;29;20418;-93
2023/08/21 09:04:30;;;;;;;14.35;10.18;;;28.90;58.70;;;;;;4857917;29;20494;-93
2023/08/21 09:07:11;;;;;;;15.17;10.83;;;28.90;58.80;;;;;;4882475;29;20056;-93
2023/08/21 09:09:45;;;;;;;18.88;11.10;;;29.00;59.50;;;;;;4863878;29;20060;-93
2023/08/21 09:12:14;;;;;;;16.65;10.70;;;29.00;58.50;;;;;;4878558;29;20053;-93
2023/08/21 09:14:42;;;;;;;14.82;10.85;;;29.10;59.50;;;;;;4882442;29;20512;-93
2023/08/21 09:17:09;;;;;;;15.15;10.52;;;29.10;58.90;;;;;;4882584;29;20136;-93
2023/08/21 09:19:37;;;;;;;16.80;11.40;;;29.20;58.10;;;;;;4882329;29;20052;-93
2023/08/21 09:22:18;;;;;;;18.35;11.15;;;29.20;57.20;;;;;;4882369;29;20414;-93
2023/08/21 09:25:06;;;;;;;16.08;11.77;;;29.20;58.50;;;;;;4882351;29;20049;-93
2023/08/21 09:27:35;;;;;;;18.58;11.23;;;29.30;59.20;;;;;;4882071;29;20135;-93
2023/08/21 09:30:09;;;;;;;18.52;11.95;;;29.30;57.70;;;;;;4867102;29;20049;-93
2023/08/21 09:33:08;;;;;;;14.77;10.70;;;29.40;57.60;;;;;;4882312;29;20494;-93
2023/08/21 09:35:35;;;;;;;13.68;10.10;;;29.50;57.30;;;;;;4871669;29;20498;-92
2023/08/21 09:38:06;;;;;;;16.00;9.77;;;29.40;55.70;;;;;;4882278;29;20573;-93
2023/08/21 09:40:39;;;;;;;14.07;10.27;;;29.30;55.90;;;;;;4882041;29;20112;-93
2023/08/21 09:43:10;;;;;;;14.27;10.38;;;29.40;56.70;;;;;;4876671;29;20144;-93
2023/08/21 09:45:37;;;;;;;13.70;9.67;;;29.40;56.70;;;;;;4863508;29;20496;-93
2023/08/21 09:48:05;;;;;;;15.45;10.35;;;29.40;55.80;;;;;;4879172;29;20045;-93
2023/08/21 09:50:33;;;;;;;14.85;10.25;;;29.40;57.80;;;;;;4863464;29;20140;-92
2023/08/21 09:53:00;;;;;;;13.80;10.18;;;29.50;57.50;;;;;;4863415;29;20081;-93
2023/08/21 09:55:31;;;;;;;15.25;10.45;;;29.70;56.20;;;;;;4863304;29;20045;-92
2023/08/21 09:58:02;;;;;;;17.17;10.60;;;29.90;56.30;;;;;;4863790;29;20057;-93
2023/08/21 10:00:37;;;;;;;14.25;9.80;;;30.00;57.10;;;;;;4863758;29;20052;-92
2023/08/21 10:03:07;;;;;;;16.23;11.40;;;30.00;55.90;;;;;;4882431;29;20049;-92
2023/08/21 10:05:36;;;;;;;20.75;10.65;;;30.00;56.90;;;;;;4866749;29;20148;-93
2023/08/21 10:08:06;;;;;;;18.27;11.05;;;30.00;57.40;;;;;;4867016;29;20080;-93
2023/08/21 10:10:38;;;;;;;17.67;10.00;;;30.00;57.40;;;;;;4866660;29;20053;-93
2023/08/21 10:13:07;;;;;;;15.98;10.48;;;30.10;55.50;;;;;;4866660;29;20566;-93
2023/08/21 10:15:37;;;;;;;15.27;10.43;;;30.20;56.20;;;;;;4874449;29;20044;-93
2023/08/21 10:18:35;;;;;;;15.30;10.60;;;30.30;57.30;;;;;;4885287;29;20406;-93
2023/08/21 10:21:15;;;;;;;14.80;10.88;;;30.40;56.30;;;;;;4857010;29;20059;-93
2023/08/21 10:23:45;;;;;;;14.87;10.43;;;30.30;56.90;;;;;;4885015;29;20047;-93
2023/08/21 10:26:13;;;;;;;15.57;11.18;;;30.20;57.20;;;;;;4885238;29;20049;-93
2023/08/21 10:29:12;;;;;;;15.07;11.40;;;30.20;56.90;;;;;;4885093;29;20060;-93
2023/08/21 10:31:43;;;;;;;13.82;9.93;;;30.10;59.50;;;;;;4864543;29;20052;-93
2023/08/21 10:34:13;;;;;;;13.32;10.40;;;30.10;57.40;;;;;;4869417;29;20063;-93
2023/08/21 10:36:44;;;;;;;13.80;9.70;;;30.20;57.40;;;;;;4884907;29;20072;-93
2023/08/21 10:39:21;;;;;;;13.48;9.85;;;30.10;58.30;;;;;;4885560;29;20499;-92
2023/08/21 10:41:55;;;;;;;13.68;9.98;;;30.00;56.80;;;;;;4884620;29;20506;-93
2023/08/21 10:44:59;;;;;;;13.38;9.93;;;30.00;57.60;;;;;;4884715;29;20518;-93
2023/08/21 10:47:32;;;;;;;13.93;10.63;;;30.00;58.60;;;;;;4869376;29;20056;-93
2023/08/21 10:50:08;;;;;;;13.67;9.30;;;30.10;57.40;;;;;;4865951;29;20049;-93
2023/08/21 10:52:46;;;;;;;15.20;9.57;;;30.20;57.50;;;;;;4881762;29;20148;-93
2023/08/21 10:55:15;;;;;;;13.55;9.25;;;30.30;56.50;;;;;;4881642;29;20059;-92
2023/08/21 10:57:42;;;;;;;12.05;8.55;;;30.30;55.80;;;;;;4882124;29;20499;-93
2023/08/21 11:00:14;;;;;;;14.55;9.60;;;30.40;54.60;;;;;;4900362;29;20151;-93
2023/08/21 11:02:46;;;;;;;15.53;9.70;;;30.50;54.80;;;;;;4869156;29;20097;-93
2023/08/21 11:05:15;;;;;;;14.15;9.10;;;30.60;54.80;;;;;;4865834;29;20514;-93
2023/08/21 11:07:48;;;;;;;13.82;9.00;;;30.70;55.30;;;;;;4881162;29;20049;-93
2023/08/21 11:10:17;;;;;;;16.13;9.50;;;30.80;55.40;;;;;;4881373;29;20044;-92
2023/08/21 11:12:56;;;;;;;11.25;8.52;;;30.80;55.70;;;;;;4864775;29;20507;-93
2023/08/21 11:15:25;;;;;;;11.83;8.67;;;30.90;57.50;;;;;;4866010;29;20049;-92
2023/08/21 11:18:03;;;;;;;13.45;8.80;;;31.00;53.80;;;;;;4865227;29;20098;-91
2023/08/21 11:20:32;;;;;;;12.70;9.10;;;31.10;54.30;;;;;;4865649;29;20143;-92
2023/08/21 11:23:02;;;;;;;14.20;8.75;;;31.30;54.70;;;;;;4865605;29;20052;-92
2023/08/21 11:25:30;;;;;;;13.52;9.48;;;31.20;55.10;;;;;;4865624;29;20052;-91
2023/08/21 11:27:57;;;;;;;12.13;8.70;;;31.10;55.50;;;;;;4896297;29;20057;-91
2023/08/21 11:30:25;;;;;;;10.80;8.50;;;31.00;54.00;;;;;;4865392;29;20086;-91
2023/08/21 11:33:05;;;;;;;12.88;8.82;;;30.90;53.90;;;;;;4865143;29;20053;-91
2023/08/21 11:35:32;;;;;;;12.98;8.70;;;30.90;54.70;;;;;;4849936;29;20080;-92
2023/08/21 11:37:59;;;;;;;13.20;9.45;;;30.90;55.90;;;;;;4865067;29;20069;-92
2023/08/21 11:40:26;;;;;;;14.33;8.63;;;30.90;56.40;;;;;;4865176;29;20121;-91
2023/08/21 11:43:00;;;;;;;12.98;8.90;;;30.90;53.50;;;;;;4850006;29;20410;-91
2023/08/21 11:45:27;;;;;;;14.25;8.40;;;30.90;54.10;;;;;;4865132;29;20053;-92
2023/08/21 11:48:00;;;;;;;13.40;8.98;;;30.90;54.40;;;;;;4865095;29;20062;-91
2023/08/21 11:50:29;;;;;;;13.10;8.88;;;31.00;54.80;;;;;;4865045;29;20446;-91
2023/08/21 11:52:56;;;;;;;14.40;9.13;;;31.10;54.40;;;;;;4865251;29;20057;-92
2023/08/21 11:55:23;;;;;;;11.60;8.68;;;31.30;56.50;;;;;;4864775;29;20076;-92
2023/08/21 11:57:52;;;;;;;13.48;9.50;;;31.20;54.30;;;;;;4864695;29;20044;-92
2023/08/21 12:00:25;;;;;;;15.25;8.57;;;31.20;54.90;;;;;;4865105;29;20112;-91
2023/08/21 12:03:00;;;;;;;16.05;9.48;;;31.20;54.70;;;;;;4864768;29;20053;-91
2023/08/21 12:05:28;;;;;;;14.20;9.13;;;31.20;55.10;;;;;;4861690;29;20114;-91
2023/08/21 12:07:55;;;;;;;14.20;9.48;;;31.10;55.60;;;;;;4855986;29;20057;-92
2023/08/21 12:10:27;;;;;;;13.13;9.88;;;31.10;55.10;;;;;;4861597;29;20063;-92
2023/08/21 12:12:55;;;;;;;11.70;8.82;;;31.10;55.70;;;;;;4861623;29;20140;-91
2023/08/21 12:15:22;;;;;;;16.27;9.65;;;31.10;55.90;;;;;;4877182;29;20054;-91
2023/08/21 12:17:50;;;;;;;14.17;10.00;;;31.10;55.80;;;;;;4861266;29;20049;-91
2023/08/21 12:20:17;;;;;;;12.40;9.38;;;31.10;55.60;;;;;;4864606;29;20041;-92
2023/08/21 12:22:44;;;;;;;13.63;9.93;;;31.10;55.40;;;;;;4880133;29;20083;-92
2023/08/21 12:25:13;;;;;;;13.80;10.30;;;31.00;56.00;;;;;;4864124;29;20056;-91
2023/08/21 12:27:40;;;;;;;15.15;9.70;;;31.10;56.10;;;;;;4864659;29;20097;-92
2023/08/21 12:30:08;;;;;;;17.73;9.80;;;31.20;55.30;;;;;;4864502;29;20574;-91
2023/08/21 12:32:35;;;;;;;12.95;9.18;;;31.10;53.80;;;;;;4864534;29;20499;-91
2023/08/21 12:35:05;;;;;;;13.32;9.23;;;31.00;55.40;;;;;;4864642;29;20586;-91
2023/08/21 12:37:32;;;;;;;13.15;9.85;;;30.90;55.50;;;;;;4864283;29;20049;-91
2023/08/21 12:39:59;;;;;;;33.50;10.50;;;30.90;54.90;;;;;;4864394;29;20037;-91
2023/08/21 12:42:27;;;;;;;16.30;9.50;;;30.90;55.40;;;;;;4879565;29;20104;-91
2023/08/21 12:44:54;;;;;;;14.05;9.98;;;31.00;54.20;;;;;;4879747;29;20041;-91
2023/08/21 12:47:21;;;;;;;15.20;9.38;;;31.20;54.60;;;;;;4879422;29;20084;-91